Annis, Idaho
Current Conditions -  °F | °C
As of 5:53 AM on Friday 24 Oct 2014 (Local Time) from KRXE Reporting Station
Overcast Overcast  
Wind Chill: 50°   Ceiling: 10000
Heat Index: 50°   Visibility: 10mi
Dew Point: 37°   Wind: 13mph
Humidity: 61%   Direction: 200°SSW
Pressure: 30.12"   Gusts: NA
Location:  43.6749°N, 111.89°W
Report Text: KRXE 241153Z AUTO 20011KT 10SM OVC100 10/03 A3012 RMK AO2 RAB09E19 SLP181 P0000 60000 T01000028 10117 20100 50005
Loading
Personal Weather Stations






























Interactive Weather Map
Tropical Storm Tracking
New forecast layout! Learn more

10-Day Weather Forecast

Advertisements
Track Severe Weather on mobile